sensor_id;sensor_type;location;lat;lon;timestamp;P1;durP1;ratioP1;P2;durP2;ratioP2
69081;SDS011;69029;51.986;5.760;2023-06-26T00:00:31;6.68;;;5.53;;
69081;SDS011;69029;51.986;5.760;2023-06-26T00:02:57;5.88;;;4.72;;
69081;SDS011;69029;51.986;5.760;2023-06-26T00:05:23;5.85;;;5.03;;
69081;SDS011;69029;51.986;5.760;2023-06-26T00:07:49;8.18;;;6.10;;
69081;SDS011;69029;51.986;5.760;2023-06-26T00:10:14;7.10;;;5.50;;
69081;SDS011;69029;51.986;5.760;2023-06-26T00:12:40;6.00;;;5.25;;
69081;SDS011;69029;51.986;5.760;2023-06-26T00:15:06;7.00;;;5.45;;
69081;SDS011;69029;51.986;5.760;2023-06-26T00:17:33;7.75;;;5.30;;
69081;SDS011;69029;51.986;5.760;2023-06-26T00:20:02;7.57;;;5.95;;
69081;SDS011;69029;51.986;5.760;2023-06-26T00:22:30;9.70;;;5.88;;
69081;SDS011;69029;51.986;5.760;2023-06-26T00:24:55;6.68;;;5.50;;
69081;SDS011;69029;51.986;5.760;2023-06-26T00:27:21;13.48;;;5.70;;
69081;SDS011;69029;51.986;5.760;2023-06-26T00:29:46;8.43;;;5.45;;
69081;SDS011;69029;51.986;5.760;2023-06-26T00:32:12;6.57;;;5.50;;
69081;SDS011;69029;51.986;5.760;2023-06-26T00:34:38;6.93;;;6.00;;
69081;SDS011;69029;51.986;5.760;2023-06-26T00:37:03;8.10;;;5.55;;
69081;SDS011;69029;51.986;5.760;2023-06-26T00:39:29;7.97;;;6.10;;
69081;SDS011;69029;51.986;5.760;2023-06-26T00:41:55;7.53;;;5.75;;
69081;SDS011;69029;51.986;5.760;2023-06-26T00:44:20;7.20;;;5.43;;
69081;SDS011;69029;51.986;5.760;2023-06-26T00:46:46;7.35;;;5.80;;
69081;SDS011;69029;51.986;5.760;2023-06-26T00:49:12;8.82;;;6.22;;
69081;SDS011;69029;51.986;5.760;2023-06-26T00:51:38;7.22;;;5.63;;
69081;SDS011;69029;51.986;5.760;2023-06-26T00:54:04;6.32;;;5.03;;
69081;SDS011;69029;51.986;5.760;2023-06-26T00:56:31;9.20;;;5.82;;
69081;SDS011;69029;51.986;5.760;2023-06-26T00:58:58;9.35;;;6.68;;
69081;SDS011;69029;51.986;5.760;2023-06-26T01:01:23;8.48;;;6.13;;
69081;SDS011;69029;51.986;5.760;2023-06-26T01:03:51;10.07;;;6.47;;
69081;SDS011;69029;51.986;5.760;2023-06-26T01:06:18;9.20;;;5.88;;
69081;SDS011;69029;51.986;5.760;2023-06-26T01:08:46;7.88;;;5.95;;
69081;SDS011;69029;51.986;5.760;2023-06-26T01:11:14;8.15;;;6.22;;
69081;SDS011;69029;51.986;5.760;2023-06-26T01:13:41;7.40;;;5.70;;
69081;SDS011;69029;51.986;5.760;2023-06-26T01:16:09;10.60;;;6.45;;
69081;SDS011;69029;51.986;5.760;2023-06-26T01:18:35;8.15;;;6.00;;
69081;SDS011;69029;51.986;5.760;2023-06-26T01:21:07;6.80;;;5.60;;
69081;SDS011;69029;51.986;5.760;2023-06-26T01:28:37;10.80;;;7.10;;
69081;SDS011;69029;51.986;5.760;2023-06-26T01:31:06;10.95;;;6.88;;
69081;SDS011;69029;51.986;5.760;2023-06-26T01:33:33;11.85;;;7.45;;
69081;SDS011;69029;51.986;5.760;2023-06-26T01:35:59;11.13;;;7.70;;
69081;SDS011;69029;51.986;5.760;2023-06-26T01:38:26;8.63;;;7.20;;
69081;SDS011;69029;51.986;5.760;2023-06-26T01:40:52;10.65;;;7.93;;
69081;SDS011;69029;51.986;5.760;2023-06-26T01:45:43;10.30;;;7.38;;
69081;SDS011;69029;51.986;5.760;2023-06-26T01:48:12;9.35;;;6.90;;
69081;SDS011;69029;51.986;5.760;2023-06-26T01:50:41;8.13;;;6.88;;
69081;SDS011;69029;51.986;5.760;2023-06-26T01:53:12;7.25;;;6.13;;
69081;SDS011;69029;51.986;5.760;2023-06-26T01:55:47;8.65;;;6.03;;
69081;SDS011;69029;51.986;5.760;2023-06-26T01:58:17;8.05;;;5.18;;
69081;SDS011;69029;51.986;5.760;2023-06-26T02:00:46;7.72;;;5.18;;
69081;SDS011;69029;51.986;5.760;2023-06-26T02:03:12;8.60;;;5.10;;
69081;SDS011;69029;51.986;5.760;2023-06-26T02:05:37;8.18;;;4.38;;
69081;SDS011;69029;51.986;5.760;2023-06-26T02:08:03;7.32;;;4.40;;
69081;SDS011;69029;51.986;5.760;2023-06-26T02:10:29;8.55;;;4.50;;
69081;SDS011;69029;51.986;5.760;2023-06-26T02:12:55;7.40;;;4.20;;
69081;SDS011;69029;51.986;5.760;2023-06-26T02:15:20;8.30;;;4.15;;
69081;SDS011;69029;51.986;5.760;2023-06-26T02:17:46;4.70;;;3.72;;
69081;SDS011;69029;51.986;5.760;2023-06-26T02:20:13;7.38;;;3.90;;
69081;SDS011;69029;51.986;5.760;2023-06-26T02:22:40;9.13;;;4.03;;
69081;SDS011;69029;51.986;5.760;2023-06-26T02:25:06;7.80;;;3.80;;
69081;SDS011;69029;51.986;5.760;2023-06-26T02:27:32;7.35;;;3.83;;
69081;SDS011;69029;51.986;5.760;2023-06-26T02:29:57;6.88;;;3.20;;
69081;SDS011;69029;51.986;5.760;2023-06-26T02:32:23;9.52;;;3.60;;
69081;SDS011;69029;51.986;5.760;2023-06-26T02:34:49;8.63;;;3.60;;
69081;SDS011;69029;51.986;5.760;2023-06-26T02:37:16;10.30;;;3.72;;
69081;SDS011;69029;51.986;5.760;2023-06-26T02:39:42;7.47;;;3.50;;
69081;SDS011;69029;51.986;5.760;2023-06-26T02:42:08;9.63;;;3.70;;
69081;SDS011;69029;51.986;5.760;2023-06-26T02:44:34;5.30;;;3.30;;
69081;SDS011;69029;51.986;5.760;2023-06-26T02:46:59;8.65;;;3.70;;
69081;SDS011;69029;51.986;5.760;2023-06-26T02:49:25;6.93;;;3.40;;
69081;SDS011;69029;51.986;5.760;2023-06-26T02:51:50;10.10;;;3.67;;
69081;SDS011;69029;51.986;5.760;2023-06-26T02:54:16;6.45;;;3.50;;
69081;SDS011;69029;51.986;5.760;2023-06-26T02:56:42;8.52;;;3.50;;
69081;SDS011;69029;51.986;5.760;2023-06-26T02:59:07;6.50;;;3.50;;
69081;SDS011;69029;51.986;5.760;2023-06-26T03:01:33;8.77;;;3.40;;
69081;SDS011;69029;51.986;5.760;2023-06-26T03:04:00;8.07;;;3.53;;
69081;SDS011;69029;51.986;5.760;2023-06-26T03:06:26;9.30;;;3.42;;
69081;SDS011;69029;51.986;5.760;2023-06-26T03:08:52;11.00;;;3.70;;
69081;SDS011;69029;51.986;5.760;2023-06-26T03:11:19;8.45;;;3.20;;
69081;SDS011;69029;51.986;5.760;2023-06-26T03:13:45;9.07;;;3.50;;
69081;SDS011;69029;51.986;5.760;2023-06-26T03:16:11;7.85;;;3.25;;
69081;SDS011;69029;51.986;5.760;2023-06-26T03:18:36;8.23;;;3.53;;
69081;SDS011;69029;51.986;5.760;2023-06-26T03:21:02;11.13;;;3.78;;
69081;SDS011;69029;51.986;5.760;2023-06-26T03:23:28;9.55;;;3.45;;
69081;SDS011;69029;51.986;5.760;2023-06-26T03:25:53;9.93;;;3.65;;
69081;SDS011;69029;51.986;5.760;2023-06-26T03:28:19;15.45;;;3.78;;
69081;SDS011;69029;51.986;5.760;2023-06-26T03:30:45;12.20;;;3.67;;
69081;SDS011;69029;51.986;5.760;2023-06-26T03:33:10;11.63;;;3.90;;
69081;SDS011;69029;51.986;5.760;2023-06-26T03:35:36;12.23;;;3.65;;
69081;SDS011;69029;51.986;5.760;2023-06-26T03:38:03;11.07;;;3.60;;
69081;SDS011;69029;51.986;5.760;2023-06-26T03:40:29;10.23;;;3.65;;
69081;SDS011;69029;51.986;5.760;2023-06-26T03:42:54;9.55;;;3.90;;
69081;SDS011;69029;51.986;5.760;2023-06-26T03:45:20;12.02;;;3.88;;
69081;SDS011;69029;51.986;5.760;2023-06-26T03:47:46;10.80;;;3.85;;
69081;SDS011;69029;51.986;5.760;2023-06-26T03:50:17;16.50;;;4.50;;
69081;SDS011;69029;51.986;5.760;2023-06-26T03:52:44;13.40;;;3.70;;
69081;SDS011;69029;51.986;5.760;2023-06-26T03:55:09;13.63;;;3.95;;
69081;SDS011;69029;51.986;5.760;2023-06-26T03:57:35;13.80;;;4.18;;
69081;SDS011;69029;51.986;5.760;2023-06-26T04:00:01;20.73;;;4.35;;
69081;SDS011;69029;51.986;5.760;2023-06-26T04:02:33;11.10;;;3.80;;
69081;SDS011;69029;51.986;5.760;2023-06-26T04:04:59;11.85;;;3.85;;
69081;SDS011;69029;51.986;5.760;2023-06-26T04:07:25;14.65;;;3.97;;
69081;SDS011;69029;51.986;5.760;2023-06-26T04:09:51;14.75;;;4.00;;
69081;SDS011;69029;51.986;5.760;2023-06-26T04:12:16;15.27;;;4.13;;
69081;SDS011;69029;51.986;5.760;2023-06-26T04:14:42;11.30;;;3.55;;
69081;SDS011;69029;51.986;5.760;2023-06-26T04:17:07;10.98;;;3.95;;
69081;SDS011;69029;51.986;5.760;2023-06-26T04:19:33;14.55;;;4.22;;
69081;SDS011;69029;51.986;5.760;2023-06-26T04:22:00;14.98;;;4.40;;
69081;SDS011;69029;51.986;5.760;2023-06-26T04:24:26;20.52;;;4.30;;
69081;SDS011;69029;51.986;5.760;2023-06-26T04:26:52;17.98;;;4.22;;
69081;SDS011;69029;51.986;5.760;2023-06-26T04:29:17;15.45;;;3.78;;
69081;SDS011;69029;51.986;5.760;2023-06-26T04:31:43;13.88;;;4.28;;
69081;SDS011;69029;51.986;5.760;2023-06-26T04:34:11;17.20;;;4.28;;
69081;SDS011;69029;51.986;5.760;2023-06-26T04:36:38;15.80;;;4.50;;
69081;SDS011;69029;51.986;5.760;2023-06-26T04:39:04;19.85;;;4.20;;
69081;SDS011;69029;51.986;5.760;2023-06-26T04:41:31;16.15;;;4.30;;
69081;SDS011;69029;51.986;5.760;2023-06-26T04:43:56;15.95;;;4.35;;
69081;SDS011;69029;51.986;5.760;2023-06-26T04:46:22;16.40;;;4.30;;
69081;SDS011;69029;51.986;5.760;2023-06-26T04:48:47;16.80;;;4.38;;
69081;SDS011;69029;51.986;5.760;2023-06-26T04:51:13;18.10;;;4.00;;
69081;SDS011;69029;51.986;5.760;2023-06-26T04:53:39;16.23;;;4.13;;
69081;SDS011;69029;51.986;5.760;2023-06-26T04:56:04;16.83;;;4.13;;
69081;SDS011;69029;51.986;5.760;2023-06-26T04:58:30;22.65;;;4.63;;
69081;SDS011;69029;51.986;5.760;2023-06-26T05:00:56;17.70;;;4.68;;
69081;SDS011;69029;51.986;5.760;2023-06-26T05:03:21;16.17;;;4.57;;
69081;SDS011;69029;51.986;5.760;2023-06-26T05:05:47;14.93;;;4.32;;
69081;SDS011;69029;51.986;5.760;2023-06-26T05:08:14;19.10;;;4.22;;
69081;SDS011;69029;51.986;5.760;2023-06-26T05:10:43;15.85;;;4.50;;
69081;SDS011;69029;51.986;5.760;2023-06-26T05:13:10;14.60;;;4.10;;
69081;SDS011;69029;51.986;5.760;2023-06-26T05:15:36;14.10;;;4.25;;
69081;SDS011;69029;51.986;5.760;2023-06-26T05:18:02;13.73;;;4.40;;
69081;SDS011;69029;51.986;5.760;2023-06-26T05:20:28;14.20;;;4.47;;
69081;SDS011;69029;51.986;5.760;2023-06-26T05:22:53;14.27;;;4.22;;
69081;SDS011;69029;51.986;5.760;2023-06-26T05:25:19;16.38;;;4.47;;
69081;SDS011;69029;51.986;5.760;2023-06-26T05:27:48;13.23;;;3.90;;
69081;SDS011;69029;51.986;5.760;2023-06-26T05:30:14;19.08;;;4.45;;
69081;SDS011;69029;51.986;5.760;2023-06-26T05:32:40;14.45;;;4.22;;
69081;SDS011;69029;51.986;5.760;2023-06-26T05:35:06;15.55;;;3.85;;
69081;SDS011;69029;51.986;5.760;2023-06-26T05:37:33;16.13;;;4.10;;
69081;SDS011;69029;51.986;5.760;2023-06-26T05:39:59;16.73;;;3.50;;
69081;SDS011;69029;51.986;5.760;2023-06-26T05:42:26;10.73;;;3.70;;
69081;SDS011;69029;51.986;5.760;2023-06-26T05:44:55;8.82;;;3.33;;
69081;SDS011;69029;51.986;5.760;2023-06-26T05:47:21;9.57;;;3.50;;
69081;SDS011;69029;51.986;5.760;2023-06-26T05:49:47;12.63;;;4.00;;
69081;SDS011;69029;51.986;5.760;2023-06-26T05:52:13;10.20;;;3.25;;
69081;SDS011;69029;51.986;5.760;2023-06-26T05:54:39;8.75;;;3.45;;
69081;SDS011;69029;51.986;5.760;2023-06-26T05:57:05;9.10;;;2.90;;
69081;SDS011;69029;51.986;5.760;2023-06-26T05:59:31;13.27;;;3.20;;
69081;SDS011;69029;51.986;5.760;2023-06-26T06:01:57;13.45;;;3.08;;
69081;SDS011;69029;51.986;5.760;2023-06-26T06:04:23;10.50;;;3.20;;
69081;SDS011;69029;51.986;5.760;2023-06-26T06:06:49;9.15;;;2.65;;
69081;SDS011;69029;51.986;5.760;2023-06-26T06:09:15;9.00;;;2.83;;
69081;SDS011;69029;51.986;5.760;2023-06-26T06:11:40;7.22;;;2.60;;
69081;SDS011;69029;51.986;5.760;2023-06-26T06:14:06;5.07;;;2.70;;
69081;SDS011;69029;51.986;5.760;2023-06-26T06:16:32;5.75;;;2.33;;
69081;SDS011;69029;51.986;5.760;2023-06-26T06:18:57;7.30;;;2.38;;
69081;SDS011;69029;51.986;5.760;2023-06-26T06:21:23;4.65;;;2.10;;
69081;SDS011;69029;51.986;5.760;2023-06-26T06:23:49;4.97;;;2.08;;
69081;SDS011;69029;51.986;5.760;2023-06-26T06:26:14;4.65;;;2.22;;
69081;SDS011;69029;51.986;5.760;2023-06-26T06:28:40;5.68;;;2.28;;
69081;SDS011;69029;51.986;5.760;2023-06-26T06:31:05;4.28;;;1.88;;
69081;SDS011;69029;51.986;5.760;2023-06-26T06:33:31;4.35;;;2.00;;
69081;SDS011;69029;51.986;5.760;2023-06-26T06:35:57;4.68;;;2.15;;
69081;SDS011;69029;51.986;5.760;2023-06-26T06:38:23;6.15;;;2.03;;
69081;SDS011;69029;51.986;5.760;2023-06-26T06:40:48;7.03;;;2.00;;
69081;SDS011;69029;51.986;5.760;2023-06-26T06:43:14;3.85;;;2.08;;
69081;SDS011;69029;51.986;5.760;2023-06-26T06:45:40;4.95;;;1.98;;
69081;SDS011;69029;51.986;5.760;2023-06-26T06:48:06;3.42;;;1.70;;
69081;SDS011;69029;51.986;5.760;2023-06-26T06:50:32;6.07;;;1.90;;
69081;SDS011;69029;51.986;5.760;2023-06-26T06:52:57;5.00;;;2.15;;
69081;SDS011;69029;51.986;5.760;2023-06-26T06:55:23;3.30;;;2.03;;
69081;SDS011;69029;51.986;5.760;2023-06-26T06:57:50;5.65;;;1.98;;
69081;SDS011;69029;51.986;5.760;2023-06-26T07:00:15;7.75;;;1.92;;
69081;SDS011;69029;51.986;5.760;2023-06-26T07:02:42;4.60;;;1.83;;
69081;SDS011;69029;51.986;5.760;2023-06-26T07:05:09;7.03;;;1.90;;
69081;SDS011;69029;51.986;5.760;2023-06-26T07:07:35;6.07;;;2.13;;
69081;SDS011;69029;51.986;5.760;2023-06-26T07:10:06;6.53;;;2.10;;
69081;SDS011;69029;51.986;5.760;2023-06-26T07:12:36;4.47;;;1.80;;
69081;SDS011;69029;51.986;5.760;2023-06-26T07:15:03;4.50;;;1.90;;
69081;SDS011;69029;51.986;5.760;2023-06-26T07:17:29;2.58;;;1.80;;
69081;SDS011;69029;51.986;5.760;2023-06-26T07:19:56;3.55;;;2.00;;
69081;SDS011;69029;51.986;5.760;2023-06-26T07:22:22;4.82;;;2.00;;
69081;SDS011;69029;51.986;5.760;2023-06-26T07:24:48;4.20;;;1.90;;
69081;SDS011;69029;51.986;5.760;2023-06-26T07:27:15;6.10;;;2.22;;
69081;SDS011;69029;51.986;5.760;2023-06-26T07:29:41;3.25;;;2.00;;
69081;SDS011;69029;51.986;5.760;2023-06-26T07:32:07;5.00;;;2.10;;
69081;SDS011;69029;51.986;5.760;2023-06-26T07:34:33;7.45;;;2.00;;
69081;SDS011;69029;51.986;5.760;2023-06-26T07:36:59;6.07;;;1.98;;
69081;SDS011;69029;51.986;5.760;2023-06-26T07:39:25;11.27;;;2.28;;
69081;SDS011;69029;51.986;5.760;2023-06-26T07:41:50;6.95;;;2.28;;
69081;SDS011;69029;51.986;5.760;2023-06-26T07:44:16;5.38;;;2.20;;
69081;SDS011;69029;51.986;5.760;2023-06-26T07:46:42;6.07;;;2.10;;
69081;SDS011;69029;51.986;5.760;2023-06-26T07:49:07;6.38;;;2.38;;
69081;SDS011;69029;51.986;5.760;2023-06-26T07:51:33;7.28;;;2.45;;
69081;SDS011;69029;51.986;5.760;2023-06-26T07:53:59;7.80;;;2.10;;
69081;SDS011;69029;51.986;5.760;2023-06-26T07:56:24;4.80;;;2.13;;
69081;SDS011;69029;51.986;5.760;2023-06-26T07:58:50;4.38;;;2.17;;
69081;SDS011;69029;51.986;5.760;2023-06-26T08:01:16;3.55;;;2.10;;
69081;SDS011;69029;51.986;5.760;2023-06-26T08:03:41;6.88;;;2.30;;
69081;SDS011;69029;51.986;5.760;2023-06-26T08:06:07;2.72;;;1.80;;
69081;SDS011;69029;51.986;5.760;2023-06-26T08:08:32;5.80;;;2.00;;
69081;SDS011;69029;51.986;5.760;2023-06-26T08:10:58;3.47;;;1.70;;
69081;SDS011;69029;51.986;5.760;2023-06-26T08:13:24;5.40;;;2.00;;
69081;SDS011;69029;51.986;5.760;2023-06-26T08:15:50;5.57;;;1.90;;
69081;SDS011;69029;51.986;5.760;2023-06-26T08:18:15;6.10;;;2.00;;
69081;SDS011;69029;51.986;5.760;2023-06-26T08:20:41;4.13;;;2.20;;
69081;SDS011;69029;51.986;5.760;2023-06-26T08:23:07;6.40;;;2.60;;
69081;SDS011;69029;51.986;5.760;2023-06-26T08:25:33;4.28;;;2.13;;
69081;SDS011;69029;51.986;5.760;2023-06-26T08:27:58;7.20;;;2.33;;
69081;SDS011;69029;51.986;5.760;2023-06-26T08:30:24;6.40;;;2.72;;
69081;SDS011;69029;51.986;5.760;2023-06-26T08:32:53;5.57;;;2.08;;
69081;SDS011;69029;51.986;5.760;2023-06-26T08:35:21;5.28;;;2.63;;
69081;SDS011;69029;51.986;5.760;2023-06-26T08:37:47;7.47;;;2.30;;
69081;SDS011;69029;51.986;5.760;2023-06-26T08:40:13;5.38;;;2.10;;
69081;SDS011;69029;51.986;5.760;2023-06-26T08:42:42;6.47;;;2.05;;
69081;SDS011;69029;51.986;5.760;2023-06-26T08:45:08;4.22;;;2.03;;
69081;SDS011;69029;51.986;5.760;2023-06-26T08:47:34;4.88;;;2.17;;
69081;SDS011;69029;51.986;5.760;2023-06-26T08:50:21;9.02;;;2.42;;
69081;SDS011;69029;51.986;5.760;2023-06-26T08:52:52;7.78;;;2.10;;
69081;SDS011;69029;51.986;5.760;2023-06-26T08:55:20;4.05;;;1.90;;
69081;SDS011;69029;51.986;5.760;2023-06-26T08:57:49;10.52;;;2.00;;
69081;SDS011;69029;51.986;5.760;2023-06-26T09:00:16;3.88;;;1.60;;
69081;SDS011;69029;51.986;5.760;2023-06-26T09:02:43;5.28;;;1.70;;
69081;SDS011;69029;51.986;5.760;2023-06-26T09:05:09;6.40;;;1.77;;
69081;SDS011;69029;51.986;5.760;2023-06-26T09:07:35;6.88;;;1.92;;
69081;SDS011;69029;51.986;5.760;2023-06-26T09:10:01;6.60;;;1.58;;
69081;SDS011;69029;51.986;5.760;2023-06-26T09:12:27;3.97;;;1.10;;
69081;SDS011;69029;51.986;5.760;2023-06-26T09:14:53;5.15;;;1.70;;
69081;SDS011;69029;51.986;5.760;2023-06-26T09:17:24;4.65;;;1.33;;
69081;SDS011;69029;51.986;5.760;2023-06-26T09:19:51;3.85;;;1.30;;
69081;SDS011;69029;51.986;5.760;2023-06-26T09:22:17;2.08;;;1.00;;
69081;SDS011;69029;51.986;5.760;2023-06-26T09:24:43;3.88;;;1.00;;
69081;SDS011;69029;51.986;5.760;2023-06-26T09:27:09;5.53;;;1.10;;
69081;SDS011;69029;51.986;5.760;2023-06-26T09:29:36;5.93;;;1.05;;
69081;SDS011;69029;51.986;5.760;2023-06-26T09:32:02;3.08;;;0.95;;
69081;SDS011;69029;51.986;5.760;2023-06-26T09:34:32;4.60;;;1.17;;
69081;SDS011;69029;51.986;5.760;2023-06-26T09:36:58;6.47;;;1.20;;
69081;SDS011;69029;51.986;5.760;2023-06-26T09:39:29;7.95;;;1.23;;
69081;SDS011;69029;51.986;5.760;2023-06-26T09:41:56;4.68;;;1.33;;
69081;SDS011;69029;51.986;5.760;2023-06-26T09:44:22;6.85;;;1.40;;
69081;SDS011;69029;51.986;5.760;2023-06-26T09:46:48;7.47;;;1.40;;
69081;SDS011;69029;51.986;5.760;2023-06-26T09:49:14;6.40;;;1.42;;
69081;SDS011;69029;51.986;5.760;2023-06-26T09:51:40;6.90;;;1.45;;
69081;SDS011;69029;51.986;5.760;2023-06-26T09:54:07;6.78;;;1.40;;
69081;SDS011;69029;51.986;5.760;2023-06-26T09:56:37;8.70;;;1.40;;
69081;SDS011;69029;51.986;5.760;2023-06-26T09:59:03;5.28;;;1.38;;
69081;SDS011;69029;51.986;5.760;2023-06-26T10:01:30;6.35;;;1.08;;
69081;SDS011;69029;51.986;5.760;2023-06-26T10:03:57;4.78;;;1.17;;
69081;SDS011;69029;51.986;5.760;2023-06-26T10:06:27;6.75;;;1.27;;
69081;SDS011;69029;51.986;5.760;2023-06-26T10:08:58;9.57;;;1.40;;
69081;SDS011;69029;51.986;5.760;2023-06-26T10:11:25;7.82;;;1.10;;
69081;SDS011;69029;51.986;5.760;2023-06-26T10:13:59;3.53;;;1.02;;
69081;SDS011;69029;51.986;5.760;2023-06-26T10:16:28;4.22;;;1.27;;
69081;SDS011;69029;51.986;5.760;2023-06-26T10:18:58;6.55;;;1.13;;
69081;SDS011;69029;51.986;5.760;2023-06-26T10:21:29;7.05;;;1.13;;
69081;SDS011;69029;51.986;5.760;2023-06-26T10:23:56;4.45;;;1.17;;
69081;SDS011;69029;51.986;5.760;2023-06-26T10:26:23;3.17;;;1.13;;
69081;SDS011;69029;51.986;5.760;2023-06-26T10:28:51;8.40;;;1.20;;
69081;SDS011;69029;51.986;5.760;2023-06-26T10:31:22;4.90;;;1.10;;
69081;SDS011;69029;51.986;5.760;2023-06-26T10:33:51;4.18;;;1.13;;
69081;SDS011;69029;51.986;5.760;2023-06-26T10:36:27;4.22;;;0.90;;
69081;SDS011;69029;51.986;5.760;2023-06-26T10:38:56;2.17;;;0.90;;
69081;SDS011;69029;51.986;5.760;2023-06-26T10:41:24;2.15;;;0.75;;
69081;SDS011;69029;51.986;5.760;2023-06-26T10:44:12;3.38;;;0.98;;
69081;SDS011;69029;51.986;5.760;2023-06-26T10:46:53;4.63;;;1.10;;
69081;SDS011;69029;51.986;5.760;2023-06-26T10:49:27;6.40;;;1.00;;
69081;SDS011;69029;51.986;5.760;2023-06-26T10:51:54;9.02;;;0.88;;
69081;SDS011;69029;51.986;5.760;2023-06-26T10:54:23;4.68;;;0.95;;
69081;SDS011;69029;51.986;5.760;2023-06-26T10:56:54;4.28;;;1.20;;
69081;SDS011;69029;51.986;5.760;2023-06-26T10:59:25;3.15;;;0.90;;
69081;SDS011;69029;51.986;5.760;2023-06-26T11:07:17;3.85;;;1.00;;
69081;SDS011;69029;51.986;5.760;2023-06-26T11:09:54;1.85;;;0.90;;
69081;SDS011;69029;51.986;5.760;2023-06-26T11:15:10;3.95;;;1.00;;
69081;SDS011;69029;51.986;5.760;2023-06-26T11:17:41;2.22;;;0.95;;
69081;SDS011;69029;51.986;5.760;2023-06-26T11:20:08;2.47;;;0.80;;
69081;SDS011;69029;51.986;5.760;2023-06-26T11:22:36;2.25;;;1.00;;
69081;SDS011;69029;51.986;5.760;2023-06-26T11:25:03;6.00;;;0.95;;
69081;SDS011;69029;51.986;5.760;2023-06-26T11:27:53;2.65;;;0.80;;
69081;SDS011;69029;51.986;5.760;2023-06-26T11:30:25;8.90;;;0.90;;
69081;SDS011;69029;51.986;5.760;2023-06-26T11:32:51;1.65;;;1.05;;
69081;SDS011;69029;51.986;5.760;2023-06-26T11:35:23;2.75;;;0.95;;
69081;SDS011;69029;51.986;5.760;2023-06-26T11:37:55;4.30;;;1.17;;
69081;SDS011;69029;51.986;5.760;2023-06-26T11:40:25;3.85;;;1.08;;
69081;SDS011;69029;51.986;5.760;2023-06-26T11:42:57;2.83;;;0.90;;
69081;SDS011;69029;51.986;5.760;2023-06-26T11:45:32;4.63;;;1.05;;
69081;SDS011;69029;51.986;5.760;2023-06-26T11:47:59;7.63;;;1.00;;
69081;SDS011;69029;51.986;5.760;2023-06-26T11:50:27;3.47;;;0.90;;
69081;SDS011;69029;51.986;5.760;2023-06-26T11:52:53;5.25;;;1.25;;
69081;SDS011;69029;51.986;5.760;2023-06-26T11:55:20;2.83;;;1.02;;
69081;SDS011;69029;51.986;5.760;2023-06-26T11:57:48;4.10;;;0.90;;
69081;SDS011;69029;51.986;5.760;2023-06-26T12:00:15;2.33;;;1.20;;
69081;SDS011;69029;51.986;5.760;2023-06-26T12:02:42;3.35;;;0.90;;
69081;SDS011;69029;51.986;5.760;2023-06-26T12:05:09;3.33;;;1.00;;
69081;SDS011;69029;51.986;5.760;2023-06-26T12:07:37;2.28;;;0.90;;
69081;SDS011;69029;51.986;5.760;2023-06-26T12:10:03;3.22;;;0.95;;
69081;SDS011;69029;51.986;5.760;2023-06-26T12:12:30;5.55;;;1.00;;
69081;SDS011;69029;51.986;5.760;2023-06-26T12:14:58;4.60;;;0.88;;
69081;SDS011;69029;51.986;5.760;2023-06-26T12:17:25;2.45;;;1.02;;
69081;SDS011;69029;51.986;5.760;2023-06-26T12:19:50;8.80;;;0.98;;
69081;SDS011;69029;51.986;5.760;2023-06-26T12:22:17;5.72;;;0.90;;
69081;SDS011;69029;51.986;5.760;2023-06-26T12:24:43;3.92;;;0.90;;
69081;SDS011;69029;51.986;5.760;2023-06-26T12:27:10;2.10;;;1.10;;
69081;SDS011;69029;51.986;5.760;2023-06-26T12:29:38;2.50;;;1.00;;
69081;SDS011;69029;51.986;5.760;2023-06-26T12:32:09;1.98;;;0.90;;
69081;SDS011;69029;51.986;5.760;2023-06-26T12:34:36;3.28;;;0.88;;
69081;SDS011;69029;51.986;5.760;2023-06-26T12:37:06;5.05;;;0.90;;
69081;SDS011;69029;51.986;5.760;2023-06-26T12:39:51;2.33;;;0.93;;
69081;SDS011;69029;51.986;5.760;2023-06-26T12:42:22;3.38;;;0.95;;
69081;SDS011;69029;51.986;5.760;2023-06-26T12:44:49;1.67;;;0.77;;
69081;SDS011;69029;51.986;5.760;2023-06-26T12:47:16;3.85;;;0.73;;
69081;SDS011;69029;51.986;5.760;2023-06-26T12:49:43;6.18;;;0.90;;
69081;SDS011;69029;51.986;5.760;2023-06-26T12:52:13;2.53;;;0.85;;
69081;SDS011;69029;51.986;5.760;2023-06-26T12:54:42;2.05;;;0.80;;
69081;SDS011;69029;51.986;5.760;2023-06-26T12:57:08;2.78;;;0.80;;
69081;SDS011;69029;51.986;5.760;2023-06-26T12:59:36;7.15;;;1.10;;
69081;SDS011;69029;51.986;5.760;2023-06-26T13:02:02;1.33;;;0.80;;
69081;SDS011;69029;51.986;5.760;2023-06-26T13:04:28;2.80;;;0.77;;
69081;SDS011;69029;51.986;5.760;2023-06-26T13:06:54;0.98;;;0.75;;
69081;SDS011;69029;51.986;5.760;2023-06-26T13:09:20;1.95;;;0.80;;
69081;SDS011;69029;51.986;5.760;2023-06-26T13:11:47;2.95;;;0.80;;
69081;SDS011;69029;51.986;5.760;2023-06-26T13:14:13;4.68;;;0.98;;
69081;SDS011;69029;51.986;5.760;2023-06-26T13:16:39;1.35;;;0.68;;
69081;SDS011;69029;51.986;5.760;2023-06-26T13:19:05;2.80;;;0.80;;
69081;SDS011;69029;51.986;5.760;2023-06-26T13:21:31;5.53;;;1.02;;
69081;SDS011;69029;51.986;5.760;2023-06-26T13:23:57;3.92;;;0.75;;
69081;SDS011;69029;51.986;5.760;2023-06-26T13:26:23;1.80;;;0.80;;
69081;SDS011;69029;51.986;5.760;2023-06-26T13:28:49;3.80;;;0.80;;
69081;SDS011;69029;51.986;5.760;2023-06-26T13:31:15;2.25;;;0.70;;
69081;SDS011;69029;51.986;5.760;2023-06-26T13:33:41;2.30;;;1.00;;
69081;SDS011;69029;51.986;5.760;2023-06-26T13:36:07;0.98;;;0.60;;
69081;SDS011;69029;51.986;5.760;2023-06-26T13:38:33;1.58;;;0.68;;
69081;SDS011;69029;51.986;5.760;2023-06-26T13:40:59;2.40;;;0.70;;
69081;SDS011;69029;51.986;5.760;2023-06-26T13:43:28;2.70;;;0.80;;
69081;SDS011;69029;51.986;5.760;2023-06-26T13:45:54;1.30;;;0.90;;
69081;SDS011;69029;51.986;5.760;2023-06-26T13:48:21;1.60;;;0.70;;
69081;SDS011;69029;51.986;5.760;2023-06-26T13:50:49;1.98;;;0.82;;
69081;SDS011;69029;51.986;5.760;2023-06-26T13:53:15;1.65;;;0.82;;
69081;SDS011;69029;51.986;5.760;2023-06-26T13:55:41;4.32;;;0.80;;
69081;SDS011;69029;51.986;5.760;2023-06-26T13:58:07;1.88;;;0.80;;
69081;SDS011;69029;51.986;5.760;2023-06-26T14:00:34;1.85;;;0.80;;
69081;SDS011;69029;51.986;5.760;2023-06-26T14:03:00;1.73;;;0.77;;
69081;SDS011;69029;51.986;5.760;2023-06-26T14:05:28;2.15;;;0.85;;
69081;SDS011;69029;51.986;5.760;2023-06-26T14:07:56;3.85;;;0.85;;
69081;SDS011;69029;51.986;5.760;2023-06-26T14:10:22;3.00;;;0.70;;
69081;SDS011;69029;51.986;5.760;2023-06-26T14:12:48;4.47;;;0.90;;
69081;SDS011;69029;51.986;5.760;2023-06-26T14:15:14;0.70;;;0.70;;
69081;SDS011;69029;51.986;5.760;2023-06-26T14:17:40;1.02;;;0.80;;
69081;SDS011;69029;51.986;5.760;2023-06-26T14:20:06;1.05;;;0.68;;
69081;SDS011;69029;51.986;5.760;2023-06-26T14:22:41;1.33;;;0.77;;
69081;SDS011;69029;51.986;5.760;2023-06-26T14:25:07;1.50;;;0.90;;
69081;SDS011;69029;51.986;5.760;2023-06-26T14:27:34;3.05;;;0.90;;
69081;SDS011;69029;51.986;5.760;2023-06-26T14:30:01;1.67;;;0.80;;
69081;SDS011;69029;51.986;5.760;2023-06-26T14:32:27;2.30;;;0.80;;
69081;SDS011;69029;51.986;5.760;2023-06-26T14:34:53;2.17;;;0.73;;
69081;SDS011;69029;51.986;5.760;2023-06-26T14:37:19;1.70;;;0.65;;
69081;SDS011;69029;51.986;5.760;2023-06-26T14:39:45;3.70;;;1.00;;
69081;SDS011;69029;51.986;5.760;2023-06-26T14:42:10;3.20;;;0.80;;
69081;SDS011;69029;51.986;5.760;2023-06-26T14:44:36;0.93;;;0.70;;
69081;SDS011;69029;51.986;5.760;2023-06-26T14:47:02;1.88;;;0.70;;
69081;SDS011;69029;51.986;5.760;2023-06-26T14:49:28;3.30;;;0.90;;
69081;SDS011;69029;51.986;5.760;2023-06-26T14:51:53;2.88;;;0.70;;
69081;SDS011;69029;51.986;5.760;2023-06-26T14:54:19;1.40;;;0.70;;
69081;SDS011;69029;51.986;5.760;2023-06-26T14:56:44;3.10;;;0.80;;
69081;SDS011;69029;51.986;5.760;2023-06-26T14:59:11;2.22;;;0.70;;